createdAt,value
2018-12-27T00:01:29.754Z,77.73
2018-12-27T00:03:57.137Z,77.50
2018-12-27T00:06:25.610Z,77.25
2018-12-27T00:08:52.722Z,77.01
2018-12-27T00:11:20.182Z,77.26
2018-12-27T00:13:48.732Z,77.28
2018-12-27T00:16:16.918Z,77.14
2018-12-27T00:18:44.436Z,76.97
2018-12-27T00:21:11.513Z,76.60
2018-12-27T00:23:38.593Z,76.82
2018-12-27T00:26:05.306Z,77.17
2018-12-27T00:28:32.090Z,76.89
2018-12-27T00:30:58.882Z,76.79
2018-12-27T00:33:25.578Z,76.76
2018-12-27T00:35:52.481Z,76.87
2018-12-27T00:38:19.225Z,76.78
2018-12-27T00:40:46.192Z,76.24
2018-12-27T00:43:14.258Z,76.81
2018-12-27T00:45:40.956Z,76.90
2018-12-27T00:48:07.681Z,77.06
2018-12-27T00:50:35.807Z,78.01
2018-12-27T00:53:03.719Z,78.10
2018-12-27T00:55:30.423Z,78.18
2018-12-27T00:57:57.134Z,77.95
2018-12-27T01:00:23.842Z,77.45
2018-12-27T01:02:50.821Z,77.90
2018-12-27T01:05:17.644Z,77.36
2018-12-27T01:07:44.343Z,77.50
2018-12-27T01:10:13.195Z,76.71
2018-12-27T01:12:39.929Z,76.92
2018-12-27T01:15:06.740Z,76.65
2018-12-27T01:17:33.485Z,76.77
2018-12-27T01:20:00.325Z,76.45
2018-12-27T01:22:30.465Z,76.64
2018-12-27T01:24:57.193Z,76.41
2018-12-27T01:27:25.189Z,76.30
2018-12-27T01:29:51.925Z,76.49
2018-12-27T01:32:18.773Z,75.65
2018-12-27T01:34:45.615Z,75.50
2018-12-27T01:37:12.380Z,76.13
2018-12-27T01:39:44.186Z,76.79
2018-12-27T01:42:10.914Z,77.22
2018-12-27T01:44:38.590Z,76.91
2018-12-27T01:47:05.305Z,76.64
2018-12-27T01:49:32.005Z,76.15
2018-12-27T01:51:58.770Z,75.83
2018-12-27T01:54:25.575Z,75.78
2018-12-27T01:56:53.583Z,76.12
2018-12-27T01:59:20.850Z,75.98
2018-12-27T02:01:47.689Z,75.96
2018-12-27T02:04:14.412Z,75.77
2018-12-27T02:06:41.208Z,75.94
2018-12-27T02:09:07.932Z,75.78
2018-12-27T02:11:35.375Z,75.79
2018-12-27T02:14:04.033Z,75.62
2018-12-27T02:16:30.728Z,75.66
2018-12-27T02:18:57.404Z,75.78
2018-12-27T02:21:24.139Z,75.84
2018-12-27T02:23:52.244Z,75.74
2018-12-27T02:26:20.885Z,75.20
2018-12-27T02:28:47.637Z,75.89
2018-12-27T02:31:14.332Z,75.65
2018-12-27T02:33:41.009Z,75.73
2018-12-27T02:36:07.770Z,75.62
2018-12-27T02:38:34.465Z,76.04
2018-12-27T02:41:01.177Z,75.83
2018-12-27T02:43:30.724Z,75.78
2018-12-27T02:45:57.780Z,75.72
2018-12-27T02:48:24.487Z,75.88
2018-12-27T02:50:51.554Z,75.68
2018-12-27T02:53:18.258Z,75.75
2018-12-27T02:55:45.294Z,75.85
2018-12-27T02:58:12.565Z,76.21
2018-12-27T03:00:39.314Z,75.97
2018-12-27T03:03:06.006Z,75.87
2018-12-27T03:05:32.859Z,75.93
2018-12-27T03:07:59.693Z,76.23
2018-12-27T03:10:26.531Z,75.82
2018-12-27T03:12:53.346Z,75.85
2018-12-27T03:15:20.064Z,75.91
2018-12-27T03:17:46.772Z,75.69
2018-12-27T03:20:13.493Z,76.69
2018-12-27T03:22:43.120Z,77.52
2018-12-27T03:25:09.866Z,78.01
2018-12-27T03:27:36.630Z,77.33
2018-12-27T03:30:06.224Z,77.06
2018-12-27T03:32:34.033Z,76.32
2018-12-27T03:35:01.156Z,76.46
2018-12-27T03:37:27.909Z,76.36
2018-12-27T03:39:55.001Z,76.05
2018-12-27T03:42:24.864Z,75.76
2018-12-27T03:44:52.743Z,75.46
2018-12-27T03:47:19.477Z,76.67
2018-12-27T03:49:46.315Z,76.47
2018-12-27T03:52:13.048Z,76.49
2018-12-27T03:54:40.156Z,77.77
2018-12-27T03:57:06.870Z,77.05
2018-12-27T03:59:33.569Z,77.17
2018-12-27T04:02:00.291Z,77.28
2018-12-27T04:04:27.110Z,76.94
2018-12-27T04:06:53.800Z,77.20
2018-12-27T04:09:23.417Z,76.89
2018-12-27T04:11:50.123Z,76.95
2018-12-27T04:14:16.836Z,77.34
2018-12-27T04:16:43.722Z,77.41
2018-12-27T04:19:10.477Z,77.48
2018-12-27T04:21:38.285Z,77.51
2018-12-27T04:24:05.030Z,77.48
2018-12-27T04:26:31.766Z,77.25
2018-12-27T04:28:58.933Z,77.22
2018-12-27T04:31:25.710Z,77.43
2018-12-27T04:33:52.439Z,76.90
2018-12-27T04:36:19.176Z,77.11
2018-12-27T04:38:46.148Z,77.07
2018-12-27T04:41:15.492Z,77.15
2018-12-27T04:43:42.373Z,76.96
2018-12-27T04:46:09.469Z,76.80
2018-12-27T04:48:36.263Z,76.08
2018-12-27T04:51:03.053Z,76.74
2018-12-27T04:53:29.918Z,77.28
2018-12-27T04:55:56.681Z,77.45
2018-12-27T04:58:23.518Z,77.38
2018-12-27T05:00:50.324Z,77.35
2018-12-27T05:03:17.098Z,77.48
2018-12-27T05:05:44.166Z,77.19
2018-12-27T05:08:10.853Z,77.19
2018-12-27T05:10:37.805Z,77.38
2018-12-27T05:13:04.549Z,77.07
2018-12-27T05:15:31.655Z,77.32
2018-12-27T05:17:58.463Z,77.15
2018-12-27T05:20:25.214Z,77.03
2018-12-27T05:22:51.933Z,76.66
2018-12-27T05:25:21.760Z,76.40
2018-12-27T05:27:48.501Z,77.02
2018-12-27T05:30:16.618Z,77.01
2018-12-27T05:32:43.522Z,77.73
2018-12-27T05:35:10.543Z,78.20
2018-12-27T05:37:37.249Z,77.61
2018-12-27T05:40:04.433Z,77.11
2018-12-27T05:42:32.281Z,76.84
2018-12-27T05:44:58.964Z,76.89
2018-12-27T05:47:25.947Z,76.58
2018-12-27T05:49:52.788Z,76.25
2018-12-27T05:52:21.076Z,76.61
2018-12-27T05:54:47.861Z,77.56
2018-12-27T05:57:14.612Z,77.33
2018-12-27T05:59:41.341Z,77.17
2018-12-27T06:02:10.642Z,76.62
2018-12-27T06:04:37.336Z,76.89
2018-12-27T06:07:04.074Z,76.63
2018-12-27T06:09:33.519Z,76.35
2018-12-27T06:12:00.693Z,76.30
2018-12-27T06:14:27.526Z,76.05
2018-12-27T06:16:54.573Z,75.95
2018-12-27T06:19:21.610Z,76.39
2018-12-27T06:21:48.464Z,76.29
2018-12-27T06:24:15.176Z,76.54
2018-12-27T06:26:41.945Z,76.71
2018-12-27T06:29:08.837Z,76.72
2018-12-27T06:31:35.609Z,77.20
2018-12-27T06:34:02.476Z,76.67
2018-12-27T06:36:29.926Z,77.04
2018-12-27T06:38:56.673Z,77.09
2018-12-27T06:41:23.438Z,77.01
2018-12-27T06:43:50.122Z,76.77
2018-12-27T06:46:16.944Z,76.85
2018-12-27T06:48:43.711Z,76.56
2018-12-27T06:51:10.545Z,76.71
2018-12-27T06:53:37.412Z,76.56
2018-12-27T06:56:04.140Z,75.77
2018-12-27T06:58:37.593Z,75.94
2018-12-27T07:00:59.477Z,75.87
2018-12-27T07:03:26.238Z,75.53
2018-12-27T07:05:52.955Z,75.74
2018-12-27T07:08:19.745Z,75.91
2018-12-27T07:10:46.742Z,75.55
2018-12-27T07:13:13.618Z,75.94
2018-12-27T07:15:40.317Z,76.54
2018-12-27T07:18:07.810Z,76.27
2018-12-27T07:20:34.524Z,76.54
2018-12-27T07:23:01.344Z,76.36
2018-12-27T07:25:28.101Z,76.83
2018-12-27T07:27:57.355Z,76.42
2018-12-27T07:30:24.134Z,76.87
2018-12-27T07:32:50.874Z,76.25
2018-12-27T07:35:17.853Z,75.67
2018-12-27T07:37:44.733Z,75.42
2018-12-27T07:40:11.721Z,74.97
2018-12-27T07:42:38.557Z,75.86
2018-12-27T07:45:08.213Z,76.33
2018-12-27T07:47:35.039Z,76.23
2018-12-27T07:50:01.772Z,76.07
2018-12-27T07:52:28.686Z,76.08
2018-12-27T07:54:55.708Z,75.43
2018-12-27T07:57:22.469Z,74.79
2018-12-27T07:59:49.219Z,74.89
2018-12-27T08:02:17.844Z,75.06
2018-12-27T08:04:44.581Z,75.10
2018-12-27T08:07:11.294Z,74.69
2018-12-27T08:09:38.220Z,75.07
2018-12-27T08:12:04.948Z,74.75
2018-12-27T08:14:31.900Z,74.82
2018-12-27T08:16:58.596Z,75.06
2018-12-27T08:19:25.352Z,75.37
2018-12-27T08:21:52.141Z,75.22
2018-12-27T08:24:19.195Z,74.81
2018-12-27T08:26:46.121Z,74.97
2018-12-27T08:29:14.547Z,74.93
2018-12-27T08:31:41.292Z,74.79
2018-12-27T08:34:08.473Z,74.86
2018-12-27T08:36:35.352Z,74.98
2018-12-27T08:39:03.395Z,75.12
2018-12-27T08:41:30.074Z,74.94
2018-12-27T08:43:56.959Z,74.66
2018-12-27T08:46:24.534Z,74.96
2018-12-27T08:48:51.600Z,75.69
2018-12-27T08:51:19.542Z,75.68
2018-12-27T08:53:46.264Z,76.10
2018-12-27T08:56:13.104Z,77.08
2018-12-27T08:58:40.450Z,77.02
2018-12-27T09:01:07.217Z,76.68
2018-12-27T09:03:34.385Z,75.98
2018-12-27T09:06:01.612Z,75.65
2018-12-27T09:08:28.611Z,74.50
2018-12-27T09:10:55.503Z,74.37
2018-12-27T09:13:22.300Z,75.02
2018-12-27T09:15:51.037Z,74.42
2018-12-27T09:18:17.723Z,74.73
2018-12-27T09:20:44.473Z,74.65
2018-12-27T09:23:15.486Z,75.11
2018-12-27T09:25:42.906Z,75.24
2018-12-27T09:28:09.635Z,75.33
2018-12-27T09:30:38.333Z,75.09
2018-12-27T09:33:05.004Z,74.70
2018-12-27T09:35:31.737Z,74.50
2018-12-27T09:38:00.680Z,73.45
2018-12-27T09:40:27.410Z,73.64
2018-12-27T09:42:56.552Z,74.16
2018-12-27T09:45:25.185Z,74.62
2018-12-27T09:47:53.580Z,74.66
2018-12-27T09:50:20.300Z,73.87
2018-12-27T09:52:48.287Z,74.15
2018-12-27T09:55:15.061Z,73.93
2018-12-27T09:57:42.096Z,74.36
2018-12-27T10:00:08.973Z,74.29
2018-12-27T10:02:35.719Z,74.07
2018-12-27T10:05:03.029Z,73.66
2018-12-27T10:07:29.908Z,73.02
2018-12-27T10:09:56.637Z,73.24
2018-12-27T10:12:23.707Z,73.26
2018-12-27T10:14:50.740Z,73.87
2018-12-27T10:17:17.686Z,74.04
2018-12-27T10:19:45.963Z,73.66
2018-12-27T10:22:12.782Z,73.42
2018-12-27T10:24:39.647Z,73.27
2018-12-27T10:27:06.384Z,73.25
2018-12-27T10:29:33.426Z,73.88
2018-12-27T10:32:00.395Z,73.77
2018-12-27T10:34:27.098Z,73.52
2018-12-27T10:36:54.091Z,72.81
2018-12-27T10:39:20.945Z,72.26
2018-12-27T10:41:47.864Z,73.15
2018-12-27T10:44:14.582Z,72.63
2018-12-27T10:46:41.377Z,72.79
2018-12-27T10:49:08.479Z,72.16
2018-12-27T10:51:35.172Z,72.29
2018-12-27T10:54:02.088Z,71.84
2018-12-27T10:56:28.985Z,71.33
2018-12-27T10:58:55.912Z,71.34
2018-12-27T11:01:23.164Z,71.41
2018-12-27T11:03:50.414Z,71.17
2018-12-27T11:06:17.396Z,70.51
2018-12-27T11:08:44.458Z,70.73
2018-12-27T11:11:13.068Z,70.34
2018-12-27T11:13:41.785Z,70.46
2018-12-27T11:16:09.019Z,70.32
2018-12-27T11:18:36.950Z,69.88
2018-12-27T11:21:03.898Z,70.24
2018-12-27T11:23:30.775Z,69.61
2018-12-27T11:25:57.559Z,68.83
2018-12-27T11:28:24.420Z,69.33
2018-12-27T11:30:53.499Z,69.70
2018-12-27T11:33:20.388Z,68.34
2018-12-27T11:35:47.603Z,68.75
2018-12-27T11:38:14.542Z,69.11
2018-12-27T11:40:41.804Z,69.22
2018-12-27T11:43:09.639Z,68.95
2018-12-27T11:45:36.986Z,69.63
2018-12-27T11:48:04.294Z,69.60
2018-12-27T11:50:31.444Z,69.52
2018-12-27T11:52:58.168Z,69.85
2018-12-27T11:55:25.105Z,69.37
2018-12-27T11:57:51.970Z,69.28
2018-12-27T12:00:19.103Z,69.08
2018-12-27T12:02:45.876Z,68.70
2018-12-27T12:05:13.198Z,68.66
2018-12-27T12:07:40.344Z,69.56
2018-12-27T12:10:07.133Z,69.46
2018-12-27T12:12:38.414Z,68.92
2018-12-27T12:15:06.142Z,68.97
2018-12-27T12:17:32.960Z,69.74
2018-12-27T12:19:59.760Z,69.61
2018-12-27T12:22:26.546Z,69.04
2018-12-27T12:24:53.454Z,68.55
2018-12-27T12:27:20.300Z,68.19
2018-12-27T12:29:50.047Z,68.16
2018-12-27T12:32:17.355Z,67.84
2018-12-27T12:34:44.120Z,67.70
2018-12-27T12:37:14.206Z,67.84
2018-12-27T12:39:39.853Z,68.87
2018-12-27T12:42:07.006Z,69.19
2018-12-27T12:44:34.044Z,69.20
2018-12-27T12:47:01.144Z,69.44
2018-12-27T12:49:31.645Z,69.89
2018-12-27T12:51:58.536Z,69.31
2018-12-27T12:54:25.306Z,69.53
2018-12-27T12:56:52.343Z,69.43
2018-12-27T12:59:19.848Z,68.72
2018-12-27T13:01:46.951Z,68.02
2018-12-27T13:04:15.093Z,68.14
2018-12-27T13:06:42.445Z,67.90
2018-12-27T13:09:10.439Z,67.58
2018-12-27T13:11:37.848Z,67.08
2018-12-27T13:14:04.957Z,67.40
2018-12-27T13:16:31.992Z,67.40
2018-12-27T13:18:58.824Z,67.35
2018-12-27T13:21:25.709Z,66.66
2018-12-27T13:23:52.779Z,67.28
2018-12-27T13:26:19.690Z,67.27
2018-12-27T13:28:48.426Z,66.72
2018-12-27T13:31:15.188Z,66.42
2018-12-27T13:33:42.595Z,66.54
2018-12-27T13:36:09.902Z,67.35
2018-12-27T13:38:37.139Z,67.59
2018-12-27T13:41:04.094Z,66.92
2018-12-27T13:43:30.973Z,67.07
2018-12-27T13:45:59.616Z,67.07
2018-12-27T13:48:27.787Z,67.00
2018-12-27T13:50:54.520Z,68.13
2018-12-27T13:53:21.420Z,68.13
2018-12-27T13:55:48.565Z,69.01
2018-12-27T13:58:15.332Z,69.07
2018-12-27T14:00:42.100Z,69.24
2018-12-27T14:03:09.206Z,69.90
2018-12-27T14:05:36.086Z,69.87
2018-12-27T14:08:02.908Z,70.10
2018-12-27T14:10:32.419Z,70.01
2018-12-27T14:12:59.159Z,69.69
2018-12-27T14:15:26.113Z,69.66
2018-12-27T14:17:53.322Z,69.33
2018-12-27T14:20:20.225Z,69.34
2018-12-27T14:22:47.345Z,69.73
2018-12-27T14:25:14.233Z,70.34
2018-12-27T14:27:41.565Z,70.46
2018-12-27T14:30:08.403Z,71.06
2018-12-27T14:32:35.564Z,71.56
2018-12-27T14:35:03.719Z,71.67
2018-12-27T14:37:30.413Z,72.00
2018-12-27T14:39:57.415Z,72.52
2018-12-27T14:42:35.700Z,72.45
2018-12-27T14:45:02.697Z,71.96
2018-12-27T14:47:29.444Z,71.45
2018-12-27T14:49:56.312Z,71.96
2018-12-27T14:52:24.701Z,72.38
2018-12-27T14:54:51.497Z,72.67
2018-12-27T14:57:18.368Z,72.67
2018-12-27T14:59:45.437Z,72.53
2018-12-27T15:02:14.309Z,71.96
2018-12-27T15:04:41.234Z,72.52
2018-12-27T15:07:09.449Z,73.30
2018-12-27T15:09:37.663Z,74.02
2018-12-27T15:12:04.503Z,74.43
2018-12-27T15:14:31.378Z,74.28
2018-12-27T15:16:58.055Z,74.27
2018-12-27T15:19:25.338Z,74.13
2018-12-27T15:21:52.702Z,73.78
2018-12-27T15:24:19.530Z,74.43
2018-12-27T15:26:46.264Z,75.42
2018-12-27T15:29:13.246Z,75.93
2018-12-27T15:31:40.061Z,75.88
2018-12-27T15:34:06.817Z,76.04
2018-12-27T15:36:34.622Z,75.50
2018-12-27T15:39:01.356Z,75.79
2018-12-27T15:41:29.303Z,75.71
2018-12-27T15:43:56.044Z,75.66
2018-12-27T15:46:22.726Z,75.67
2018-12-27T15:48:49.484Z,75.69
2018-12-27T15:51:16.228Z,75.62
2018-12-27T15:53:43.086Z,74.81
2018-12-27T15:56:09.798Z,74.92
2018-12-27T15:58:36.683Z,75.40
2018-12-27T16:01:03.730Z,75.92
2018-12-27T16:03:30.535Z,75.68
2018-12-27T16:05:57.301Z,75.28
2018-12-27T16:08:24.020Z,75.76
2018-12-27T16:10:51.128Z,76.09
2018-12-27T16:13:17.831Z,75.85
2018-12-27T16:15:44.540Z,76.73
2018-12-27T16:18:11.266Z,77.03
2018-12-27T16:20:38.029Z,77.38
2018-12-27T16:23:04.818Z,77.50
2018-12-27T16:25:31.679Z,77.21
2018-12-27T16:27:58.647Z,77.18
2018-12-27T16:30:25.426Z,76.87
2018-12-27T16:32:52.304Z,76.53
2018-12-27T16:35:19.183Z,76.14
2018-12-27T16:37:46.090Z,76.02
2018-12-27T16:40:13.487Z,75.90
2018-12-27T16:42:44.106Z,75.79
2018-12-27T16:45:11.127Z,75.85
2018-12-27T16:47:40.605Z,75.36
2018-12-27T16:50:08.144Z,74.75
2018-12-27T16:52:35.313Z,75.43
2018-12-27T16:55:02.321Z,75.81
2018-12-27T16:57:30.633Z,75.89
2018-12-27T16:59:57.650Z,75.85
2018-12-27T17:02:24.633Z,75.86
2018-12-27T17:04:51.407Z,75.63
2018-12-27T17:07:18.340Z,75.96
2018-12-27T17:09:45.176Z,75.72
2018-12-27T17:12:12.397Z,75.91
2018-12-27T17:14:39.143Z,75.68
2018-12-27T17:17:05.985Z,76.15
2018-12-27T17:19:35.413Z,76.04
2018-12-27T17:22:02.506Z,76.04
2018-12-27T17:24:30.831Z,75.98
2018-12-27T17:26:58.012Z,76.33
2018-12-27T17:29:25.100Z,76.48
2018-12-27T17:31:52.356Z,76.46
2018-12-27T17:34:19.055Z,77.26
2018-12-27T17:36:45.863Z,78.60
2018-12-27T17:39:14.212Z,79.57
2018-12-27T17:41:42.579Z,80.04
2018-12-27T17:44:09.490Z,80.30
2018-12-27T17:46:37.874Z,80.70
2018-12-27T17:49:08.743Z,80.85
2018-12-27T17:51:35.798Z,81.30
2018-12-27T17:54:02.602Z,81.44
2018-12-27T17:56:29.415Z,81.58
2018-12-27T17:58:56.186Z,81.28
2018-12-27T18:01:22.915Z,80.63
2018-12-27T18:03:49.624Z,81.19
2018-12-27T18:06:16.461Z,81.78
2018-12-27T18:08:43.302Z,81.50
2018-12-27T18:11:10.171Z,81.53
2018-12-27T18:13:37.408Z,80.54
2018-12-27T18:16:04.772Z,80.00
2018-12-27T18:18:31.568Z,79.66
2018-12-27T18:20:59.118Z,79.67
2018-12-27T18:23:25.924Z,79.93
2018-12-27T18:25:55.139Z,79.91
2018-12-27T18:28:23.531Z,79.97
2018-12-27T18:30:50.742Z,79.92
2018-12-27T18:33:18.892Z,79.46
2018-12-27T18:35:45.863Z,79.79
2018-12-27T18:38:13.466Z,80.12
2018-12-27T18:40:47.330Z,80.22
2018-12-27T18:43:14.144Z,80.33
2018-12-27T18:45:40.951Z,81.27
2018-12-27T18:48:07.688Z,81.17
2018-12-27T18:50:34.406Z,80.83
2018-12-27T18:53:03.138Z,80.34
2018-12-27T18:55:30.283Z,80.13
2018-12-27T18:57:57.518Z,79.65
2018-12-27T19:00:24.587Z,79.55
2018-12-27T19:02:51.323Z,78.80
2018-12-27T19:05:18.087Z,79.20
2018-12-27T19:07:45.276Z,79.31
2018-12-27T19:10:13.586Z,79.27
2018-12-27T19:13:08.901Z,79.37
2018-12-27T19:15:48.285Z,79.59
2018-12-27T19:18:27.238Z,79.52
2018-12-27T19:20:59.712Z,79.35
2018-12-27T19:23:27.605Z,80.07
2018-12-27T19:25:54.437Z,79.84
2018-12-27T19:28:21.468Z,80.42
2018-12-27T19:30:48.723Z,80.51
2018-12-27T19:33:15.542Z,80.25
2018-12-27T19:35:42.388Z,79.87
2018-12-27T19:38:09.582Z,79.86
2018-12-27T19:40:36.290Z,79.48
2018-12-27T19:43:03.301Z,79.38
2018-12-27T19:45:30.101Z,79.58
2018-12-27T19:47:57.053Z,79.83
2018-12-27T19:50:25.266Z,78.85
2018-12-27T19:52:52.209Z,79.57
2018-12-27T19:55:19.089Z,80.45
2018-12-27T19:57:45.968Z,80.49
2018-12-27T20:00:13.117Z,79.71
2018-12-27T20:02:39.867Z,79.32
2018-12-27T20:05:06.926Z,79.58
2018-12-27T20:07:33.946Z,79.94
2018-12-27T20:10:00.826Z,80.56
2018-12-27T20:12:27.639Z,80.59
2018-12-27T20:14:54.384Z,80.33
2018-12-27T20:17:21.122Z,80.29
2018-12-27T20:19:47.841Z,79.75
2018-12-27T20:22:14.704Z,79.80
2018-12-27T20:24:42.142Z,80.21
2018-12-27T20:27:09.103Z,80.77
2018-12-27T20:29:36.132Z,81.11
2018-12-27T20:32:02.846Z,81.48
2018-12-27T20:34:29.559Z,81.90
2018-12-27T20:36:56.676Z,82.13
2018-12-27T20:39:24.000Z,82.19
2018-12-27T20:41:50.708Z,82.06
2018-12-27T20:44:17.537Z,82.04
2018-12-27T20:46:44.925Z,81.90
2018-12-27T20:49:11.672Z,81.42
2018-12-27T20:51:38.405Z,81.40
2018-12-27T20:54:07.279Z,81.03
2018-12-27T20:56:34.406Z,81.17
2018-12-27T20:59:01.264Z,80.89
2018-12-27T21:01:28.456Z,80.52
2018-12-27T21:03:55.369Z,79.93
2018-12-27T21:06:22.159Z,79.54
2018-12-27T21:08:48.878Z,79.29
2018-12-27T21:11:15.818Z,79.56
2018-12-27T21:13:42.545Z,79.63
2018-12-27T21:16:09.697Z,79.49
2018-12-27T21:18:36.590Z,79.22
2018-12-27T21:21:03.471Z,79.79
2018-12-27T21:23:30.770Z,80.33
2018-12-27T21:25:57.644Z,80.00
2018-12-27T21:28:24.349Z,80.79
2018-12-27T21:30:51.094Z,81.11
2018-12-27T21:33:17.914Z,81.55
2018-12-27T21:35:44.628Z,81.64
2018-12-27T21:38:11.457Z,82.05
2018-12-27T21:40:38.306Z,82.18
2018-12-27T21:43:05.361Z,81.23
2018-12-27T21:45:32.540Z,81.54
2018-12-27T21:47:59.810Z,81.13
2018-12-27T21:50:31.041Z,81.22
2018-12-27T21:52:57.902Z,81.13
2018-12-27T21:55:24.916Z,81.52
2018-12-27T21:57:53.928Z,81.66
2018-12-27T22:00:21.096Z,81.96
2018-12-27T22:02:48.055Z,81.95
2018-12-27T22:05:15.301Z,82.43
2018-12-27T22:07:42.414Z,82.64
2018-12-27T22:10:09.233Z,82.69
2018-12-27T22:12:36.155Z,82.67
2018-12-27T22:15:03.842Z,82.58
2018-12-27T22:17:30.565Z,82.75
2018-12-27T22:19:58.125Z,82.82
2018-12-27T22:22:25.201Z,83.10
2018-12-27T22:24:51.935Z,83.37
2018-12-27T22:27:18.680Z,83.18
2018-12-27T22:29:46.500Z,82.72
2018-12-27T22:32:13.305Z,82.67
2018-12-27T22:34:40.416Z,83.16
2018-12-27T22:37:11.580Z,82.58
2018-12-27T22:39:39.417Z,82.83
2018-12-27T22:42:06.307Z,82.76
2018-12-27T22:44:33.367Z,83.26
2018-12-27T22:47:00.079Z,83.16
2018-12-27T22:49:27.808Z,83.61
2018-12-27T22:51:54.506Z,82.33
2018-12-27T22:54:21.253Z,82.10
2018-12-27T22:56:50.720Z,82.30
2018-12-27T22:59:17.573Z,82.66
2018-12-27T23:01:44.361Z,81.68
2018-12-27T23:04:13.568Z,82.32
2018-12-27T23:06:40.508Z,82.74
2018-12-27T23:09:07.336Z,83.37
2018-12-27T23:11:34.096Z,83.67
2018-12-27T23:14:03.168Z,83.49
2018-12-27T23:16:29.874Z,83.72
2018-12-27T23:18:56.727Z,84.06
2018-12-27T23:21:23.587Z,83.40
2018-12-27T23:23:50.436Z,83.35
2018-12-27T23:26:17.165Z,83.32
2018-12-27T23:28:46.616Z,82.45
2018-12-27T23:31:13.334Z,81.65
2018-12-27T23:33:40.160Z,82.06
2018-12-27T23:36:07.165Z,81.98
2018-12-27T23:38:35.084Z,81.97
2018-12-27T23:41:01.859Z,81.93
2018-12-27T23:43:28.574Z,82.38
2018-12-27T23:45:55.400Z,82.91
2018-12-27T23:48:22.227Z,83.31
2018-12-27T23:50:49.041Z,83.38
2018-12-27T23:53:15.745Z,83.57
2018-12-27T23:55:42.497Z,83.74
2018-12-27T23:58:09.363Z,83.81
